Time;durP1;ratioP1;P1;durP2;ratioP2;P2;SDS_P1;SDS_P2;PMS_P1;PMS_P2;Temp;Humidity;BMP_temperature;BMP_pressure;BME280_temperature;BME280_humidity;BME280_pressure;Samples;Min_cycle;Max_cycle;Signal;HPM_P1;HPM_P2
2023/09/19 00:00:26;;;;;;;12.05;7.80;;;25.90;74.00;;;;;;5135977;27;20035;-79
2023/09/19 00:03:01;;;;;;;17.60;8.30;;;25.90;74.00;;;;;;5136162;27;20123;-79
2023/09/19 00:05:28;;;;;;;16.42;7.22;;;25.90;73.70;;;;;;5135893;27;20034;-79
2023/09/19 00:07:58;;;;;;;15.45;7.55;;;25.90;73.70;;;;;;5106826;22;20048;-79
2023/09/19 00:10:26;;;;;;;12.25;6.60;;;25.90;73.80;;;;;;5056107;28;20487;-78
2023/09/19 00:12:55;;;;;;;13.95;7.03;;;25.90;74.00;;;;;;5056289;28;20040;-79
2023/09/19 00:15:24;;;;;;;12.52;7.28;;;25.90;73.80;;;;;;5074623;28;20529;-78
2023/09/19 00:17:52;;;;;;;12.52;6.97;;;25.90;73.80;;;;;;5056451;28;20042;-78
2023/09/19 00:20:18;;;;;;;15.68;6.90;;;25.90;73.90;;;;;;5074662;28;20093;-78
2023/09/19 00:22:44;;;;;;;17.40;7.47;;;25.90;73.70;;;;;;5056287;28;20429;-77
2023/09/19 00:25:11;;;;;;;14.20;6.80;;;25.80;74.30;;;;;;5074559;28;20029;-78
2023/09/19 00:27:42;;;;;;;13.38;6.95;;;25.80;73.80;;;;;;5074637;28;20094;-78
2023/09/19 00:30:14;;;;;;;13.65;7.15;;;25.80;73.90;;;;;;5074265;28;20029;-78
2023/09/19 00:32:40;;;;;;;17.08;7.40;;;25.80;73.90;;;;;;5074273;28;20040;-78
2023/09/19 00:35:08;;;;;;;13.88;7.13;;;25.80;74.10;;;;;;5074428;28;20515;-79
2023/09/19 00:37:34;;;;;;;10.82;6.93;;;25.80;73.80;;;;;;5055993;28;20475;-78
2023/09/19 00:39:59;;;;;;;14.43;7.03;;;25.70;73.60;;;;;;5056560;28;20064;-78
2023/09/19 00:42:25;;;;;;;15.82;6.80;;;25.70;73.50;;;;;;5074366;28;20033;-79
2023/09/19 00:44:51;;;;;;;11.52;6.43;;;25.70;73.50;;;;;;5074062;28;20173;-79
2023/09/19 00:47:18;;;;;;;15.32;6.45;;;25.70;73.40;;;;;;5056220;28;20044;-79
2023/09/19 00:49:50;;;;;;;13.02;6.47;;;25.70;73.30;;;;;;5074029;28;20102;-79
2023/09/19 00:52:19;;;;;;;12.80;6.30;;;25.70;72.60;;;;;;5073883;28;20036;-78
2023/09/19 00:54:48;;;;;;;13.38;6.57;;;25.70;72.80;;;;;;5073848;28;20081;-78
2023/09/19 00:57:19;;;;;;;11.57;6.38;;;25.70;72.70;;;;;;5073462;28;20025;-77
2023/09/19 00:59:48;;;;;;;13.05;5.93;;;25.70;72.50;;;;;;5073875;28;20055;-77
2023/09/19 01:02:16;;;;;;;14.75;6.40;;;25.70;72.40;;;;;;5073922;28;20120;-78
2023/09/19 01:04:42;;;;;;;16.45;6.57;;;25.70;72.30;;;;;;5073975;28;20033;-79
2023/09/19 01:07:09;;;;;;;13.48;6.68;;;25.70;72.00;;;;;;5073648;28;20040;-78
2023/09/19 01:09:35;;;;;;;12.40;6.50;;;25.70;72.00;;;;;;5073534;28;20028;-78
2023/09/19 01:12:04;;;;;;;12.93;5.75;;;25.70;71.80;;;;;;5073488;28;20041;-77
2023/09/19 01:14:48;;;;;;;14.98;6.35;;;25.70;71.90;;;;;;5087796;28;20434;-78
2023/09/19 01:17:22;;;;;;;13.73;6.78;;;25.70;71.60;;;;;;5103493;28;20115;-78
2023/09/19 01:20:04;;;;;;;13.68;8.00;;;25.70;72.10;;;;;;5113666;28;20088;-77
2023/09/19 01:22:42;;;;;;;19.52;8.07;;;25.70;72.40;;;;;;5093535;28;20039;-78
2023/09/19 01:25:26;;;;;;;16.40;7.28;;;25.60;72.00;;;;;;5093908;28;20105;-79
2023/09/19 01:28:15;;;;;;;12.13;7.13;;;25.60;72.40;;;;;;5093877;28;20097;-78
2023/09/19 01:30:44;;;;;;;18.75;8.48;;;25.50;73.10;;;;;;5075032;28;20079;-77
2023/09/19 01:33:14;;;;;;;12.25;8.02;;;25.50;73.40;;;;;;5075151;28;20051;-79
2023/09/19 01:35:40;;;;;;;17.48;8.35;;;25.40;73.80;;;;;;5093481;28;20443;-78
2023/09/19 01:38:11;;;;;;;18.85;9.02;;;25.40;74.10;;;;;;5093745;28;20043;-78
2023/09/19 01:40:43;;;;;;;12.70;8.13;;;25.40;74.50;;;;;;5093466;28;20030;-78
2023/09/19 01:43:15;;;;;;;15.45;9.77;;;25.40;74.60;;;;;;5093089;28;20040;-77
2023/09/19 01:45:51;;;;;;;17.33;9.20;;;25.40;75.30;;;;;;5092668;28;20496;-77
2023/09/19 01:48:55;;;;;;;17.90;9.20;;;25.40;75.50;;;;;;5092919;28;20036;-79
2023/09/19 01:51:46;;;;;;;17.17;8.93;;;25.30;76.00;;;;;;5093007;28;20090;-78
2023/09/19 01:54:14;;;;;;;19.00;9.10;;;25.30;75.70;;;;;;5092733;28;20498;-78
2023/09/19 01:56:50;;;;;;;16.10;9.20;;;25.20;75.90;;;;;;5092921;28;20478;-77
2023/09/19 01:59:28;;;;;;;18.73;9.27;;;25.20;76.20;;;;;;5092916;28;20115;-78
2023/09/19 02:01:56;;;;;;;16.98;9.70;;;25.20;76.40;;;;;;5092874;28;20058;-78
2023/09/19 02:04:22;;;;;;;17.05;8.77;;;25.20;76.10;;;;;;5092584;28;20032;-78
2023/09/19 02:06:47;;;;;;;15.65;9.00;;;25.20;75.90;;;;;;5092496;28;20145;-75
2023/09/19 02:09:15;;;;;;;17.80;8.93;;;25.20;75.80;;;;;;5074410;28;20074;-79
2023/09/19 02:11:41;;;;;;;16.48;10.07;;;25.10;75.60;;;;;;5092461;28;20115;-78
2023/09/19 02:14:08;;;;;;;20.95;10.32;;;25.10;76.00;;;;;;5074375;28;20032;-77
2023/09/19 02:16:34;;;;;;;14.68;9.57;;;25.10;76.30;;;;;;5092750;28;20028;-79
2023/09/19 02:19:00;;;;;;;17.48;10.27;;;25.10;76.30;;;;;;5094407;28;20118;-77
2023/09/19 02:21:29;;;;;;;17.75;9.70;;;25.00;76.70;;;;;;5093897;28;20070;-77
2023/09/19 02:23:55;;;;;;;16.63;10.30;;;25.00;76.90;;;;;;5074453;28;20043;-78
2023/09/19 02:26:25;;;;;;;18.08;9.32;;;24.90;77.10;;;;;;5092609;28;20147;-79
2023/09/19 02:28:51;;;;;;;20.75;9.10;;;24.80;76.60;;;;;;5092490;28;20557;-79
2023/09/19 02:31:16;;;;;;;15.13;8.13;;;24.70;76.00;;;;;;5074184;28;20426;-78
2023/09/19 02:33:43;;;;;;;13.95;7.60;;;24.70;75.70;;;;;;5091953;28;20047;-78
2023/09/19 02:36:09;;;;;;;14.52;7.80;;;24.70;75.00;;;;;;5091904;28;20179;-79
2023/09/19 02:38:34;;;;;;;14.77;7.75;;;24.60;74.20;;;;;;5092337;28;20063;-78
2023/09/19 02:41:01;;;;;;;15.20;8.05;;;24.60;74.10;;;;;;5092262;28;20111;-78
2023/09/19 02:43:27;;;;;;;17.73;7.88;;;24.70;74.10;;;;;;5092083;28;20391;-78
2023/09/19 02:45:56;;;;;;;16.17;7.85;;;24.70;73.80;;;;;;5092167;28;20032;-78
2023/09/19 02:48:22;;;;;;;19.27;7.95;;;24.70;73.80;;;;;;5091986;28;20028;-77
2023/09/19 02:50:51;;;;;;;13.43;7.80;;;24.70;73.80;;;;;;5073709;28;20376;-78
2023/09/19 02:53:17;;;;;;;13.68;8.40;;;24.70;73.80;;;;;;5091973;28;20112;-78
2023/09/19 02:55:42;;;;;;;19.77;8.77;;;24.70;73.80;;;;;;5073705;28;20391;-78
2023/09/19 02:58:10;;;;;;;16.55;8.40;;;24.70;74.00;;;;;;5073869;28;20040;-78
2023/09/19 03:00:36;;;;;;;18.67;8.20;;;24.60;74.00;;;;;;5091798;28;20155;-77
2023/09/19 03:03:02;;;;;;;13.13;8.15;;;24.60;74.20;;;;;;5091911;28;20120;-77
2023/09/19 03:05:30;;;;;;;17.55;8.43;;;24.50;74.30;;;;;;5091976;28;20107;-77
2023/09/19 03:07:56;;;;;;;13.23;8.43;;;24.60;74.30;;;;;;5091932;28;20078;-78
2023/09/19 03:10:24;;;;;;;18.52;9.23;;;24.50;74.50;;;;;;5092107;28;20031;-78
2023/09/19 03:12:50;;;;;;;16.50;8.68;;;24.50;74.70;;;;;;5073635;28;20128;-78
2023/09/19 03:15:17;;;;;;;18.35;8.43;;;24.50;74.90;;;;;;5078687;28;20028;-78
2023/09/19 03:17:44;;;;;;;14.98;8.35;;;24.60;75.00;;;;;;5110934;28;20093;-77
2023/09/19 03:20:12;;;;;;;21.23;9.60;;;24.70;75.00;;;;;;5074765;28;20032;-78
2023/09/19 03:22:39;;;;;;;17.67;9.25;;;24.70;75.10;;;;;;5074339;28;20042;-78
2023/09/19 03:25:07;;;;;;;21.17;9.60;;;24.70;75.20;;;;;;5091759;28;20032;-77
2023/09/19 03:27:36;;;;;;;19.27;9.32;;;24.70;75.30;;;;;;5073734;28;20040;-78
2023/09/19 03:30:07;;;;;;;16.05;8.98;;;24.70;75.20;;;;;;5091832;28;20064;-78
2023/09/19 03:32:34;;;;;;;17.38;8.98;;;24.70;75.00;;;;;;5091572;28;20146;-79
2023/09/19 03:35:00;;;;;;;14.48;8.60;;;24.70;74.80;;;;;;5091972;28;20111;-77
2023/09/19 03:37:26;;;;;;;15.23;8.90;;;24.50;74.80;;;;;;5091731;28;20107;-78
2023/09/19 03:39:51;;;;;;;18.13;8.50;;;24.50;74.90;;;;;;5091564;28;20072;-77
2023/09/19 03:42:17;;;;;;;15.15;8.30;;;24.60;74.90;;;;;;5091817;28;20024;-78
2023/09/19 03:44:43;;;;;;;18.88;8.52;;;24.60;75.00;;;;;;5093773;28;20040;-77
2023/09/19 03:47:08;;;;;;;18.48;8.80;;;24.50;74.60;;;;;;5095467;28;20035;-77
2023/09/19 03:49:34;;;;;;;15.80;8.15;;;24.50;74.70;;;;;;5095591;28;20024;-77
2023/09/19 03:52:00;;;;;;;15.38;8.68;;;24.50;74.60;;;;;;5095021;28;20450;-77
2023/09/19 03:54:25;;;;;;;15.38;8.18;;;24.50;74.60;;;;;;5095266;28;20047;-79
2023/09/19 03:56:51;;;;;;;20.40;9.32;;;24.50;74.50;;;;;;5095092;28;20043;-78
2023/09/19 03:59:18;;;;;;;19.98;8.85;;;24.50;74.50;;;;;;5095201;28;20058;-77
2023/09/19 04:01:43;;;;;;;17.58;8.95;;;24.60;74.50;;;;;;5095285;28;20418;-77
2023/09/19 04:04:09;;;;;;;14.65;8.57;;;24.60;74.70;;;;;;5095040;28;20040;-77
2023/09/19 04:06:35;;;;;;;13.57;8.40;;;24.60;74.60;;;;;;5095374;28;20128;-77
2023/09/19 04:09:06;;;;;;;18.25;8.35;;;24.60;74.40;;;;;;5094915;28;20056;-78
2023/09/19 04:11:33;;;;;;;13.45;8.18;;;24.60;74.40;;;;;;5095565;28;20028;-77
2023/09/19 04:13:59;;;;;;;17.17;9.18;;;24.50;74.30;;;;;;5095124;28;20075;-78
2023/09/19 04:16:24;;;;;;;15.65;8.57;;;24.50;74.20;;;;;;5095093;28;20052;-77
2023/09/19 04:18:50;;;;;;;18.15;9.13;;;24.50;74.30;;;;;;5076623;28;20097;-77
2023/09/19 04:21:16;;;;;;;19.23;9.40;;;24.50;74.20;;;;;;5076652;28;20123;-78
2023/09/19 04:23:42;;;;;;;16.65;8.10;;;24.40;74.00;;;;;;5094834;28;20032;-77
2023/09/19 04:26:08;;;;;;;16.65;8.88;;;24.40;73.90;;;;;;5095069;28;20038;-77
2023/09/19 04:28:34;;;;;;;17.25;8.88;;;24.40;74.00;;;;;;5094622;28;20032;-77
2023/09/19 04:31:00;;;;;;;19.30;9.77;;;24.40;73.70;;;;;;5094682;28;20036;-77
2023/09/19 04:33:29;;;;;;;17.83;9.20;;;24.40;73.90;;;;;;5094592;28;20113;-78
2023/09/19 04:35:55;;;;;;;15.88;8.50;;;24.40;74.00;;;;;;5076476;28;20035;-77
2023/09/19 04:38:21;;;;;;;17.40;8.98;;;24.40;73.60;;;;;;5076951;28;20028;-78
2023/09/19 04:40:48;;;;;;;14.82;8.82;;;24.30;73.40;;;;;;5094847;28;20476;-78
2023/09/19 04:43:15;;;;;;;12.90;8.02;;;24.30;73.10;;;;;;5094667;28;20437;-77
2023/09/19 04:45:41;;;;;;;17.50;7.90;;;24.30;72.80;;;;;;5076251;28;20033;-78
2023/09/19 04:48:08;;;;;;;16.73;7.13;;;24.30;72.50;;;;;;5076274;28;20154;-78
2023/09/19 04:50:34;;;;;;;19.58;8.00;;;24.40;72.20;;;;;;5076228;28;20169;-77
2023/09/19 04:53:01;;;;;;;13.27;7.90;;;24.30;71.70;;;;;;5094532;28;20198;-78
2023/09/19 04:55:27;;;;;;;15.88;8.15;;;24.30;71.40;;;;;;5094437;28;20447;-77
2023/09/19 04:57:53;;;;;;;21.13;8.02;;;24.30;71.00;;;;;;5094551;28;20028;-78
2023/09/19 05:00:24;;;;;;;16.45;7.00;;;24.30;70.70;;;;;;5076188;28;20031;-77
2023/09/19 05:02:51;;;;;;;18.25;7.60;;;24.30;70.50;;;;;;5094481;28;20040;-78
2023/09/19 05:05:18;;;;;;;16.63;7.63;;;24.30;70.40;;;;;;5094319;28;20104;-79
2023/09/19 05:07:45;;;;;;;17.77;8.05;;;24.20;70.30;;;;;;5094323;28;20120;-77
2023/09/19 05:10:11;;;;;;;22.80;7.60;;;24.20;70.40;;;;;;5096440;28;20027;-77
2023/09/19 05:12:37;;;;;;;14.10;6.63;;;24.30;70.20;;;;;;5103276;28;20463;-77
2023/09/19 05:15:04;;;;;;;18.15;7.50;;;24.30;70.10;;;;;;5093381;28;20032;-77
2023/09/19 05:17:31;;;;;;;21.92;7.53;;;24.30;69.90;;;;;;5080038;28;20051;-75
2023/09/19 05:19:58;;;;;;;18.85;7.80;;;24.30;69.60;;;;;;5093992;28;20028;-79
2023/09/19 05:22:26;;;;;;;17.75;7.38;;;24.30;69.50;;;;;;5094076;28;20028;-78
2023/09/19 05:24:52;;;;;;;18.17;7.80;;;24.30;69.40;;;;;;5093639;28;20463;-79
2023/09/19 05:27:20;;;;;;;14.27;7.00;;;24.30;69.10;;;;;;5093424;28;20384;-77
2023/09/19 05:29:46;;;;;;;18.50;7.15;;;24.30;69.10;;;;;;5075462;28;20038;-78
2023/09/19 05:32:12;;;;;;;16.83;6.70;;;24.30;68.50;;;;;;5094081;28;20035;-77
2023/09/19 05:34:38;;;;;;;12.63;6.55;;;24.30;68.70;;;;;;5094180;28;20034;-80
2023/09/19 05:37:07;;;;;;;14.63;6.85;;;24.30;68.50;;;;;;5075474;28;20078;-77
2023/09/19 05:39:33;;;;;;;17.95;6.95;;;24.30;68.40;;;;;;5093214;28;20356;-78
2023/09/19 05:42:00;;;;;;;18.42;6.93;;;24.30;68.30;;;;;;5074752;28;20036;-78
2023/09/19 05:44:26;;;;;;;13.30;7.03;;;24.40;68.20;;;;;;5093330;28;20182;-77
2023/09/19 05:46:52;;;;;;;18.20;7.05;;;24.40;68.10;;;;;;5074837;28;20428;-79
2023/09/19 05:49:18;;;;;;;18.55;6.97;;;24.40;68.00;;;;;;5074634;28;20074;-80
2023/09/19 05:51:44;;;;;;;22.55;7.30;;;24.40;67.80;;;;;;5093556;28;20063;-77
2023/09/19 05:54:11;;;;;;;13.45;7.13;;;24.40;67.80;;;;;;5093398;28;20086;-83
2023/09/19 05:56:36;;;;;;;18.85;7.40;;;24.50;67.90;;;;;;5075140;28;20059;-77
2023/09/19 05:59:04;;;;;;;18.35;7.45;;;24.50;67.90;;;;;;5093134;28;20118;-76
2023/09/19 06:01:32;;;;;;;17.95;7.28;;;24.60;67.80;;;;;;5074724;28;20062;-75
2023/09/19 06:03:59;;;;;;;19.08;7.57;;;24.60;67.60;;;;;;5093445;28;20024;-79
2023/09/19 06:06:25;;;;;;;21.40;8.13;;;24.70;67.70;;;;;;5092670;28;20161;-78
2023/09/19 06:08:51;;;;;;;23.63;7.68;;;24.70;68.10;;;;;;5092592;28;20048;-76
2023/09/19 06:11:20;;;;;;;18.55;7.72;;;24.80;67.70;;;;;;5092810;28;20044;-77
2023/09/19 06:13:47;;;;;;;22.98;7.43;;;24.80;67.50;;;;;;5092630;28;20396;-76
2023/09/19 06:16:13;;;;;;;19.42;7.95;;;24.80;67.40;;;;;;5074465;28;20066;-77
2023/09/19 06:18:39;;;;;;;19.23;8.15;;;24.80;67.50;;;;;;5092989;28;20042;-76
2023/09/19 06:21:05;;;;;;;16.92;7.68;;;24.90;67.40;;;;;;5092476;28;20025;-77
2023/09/19 06:23:31;;;;;;;24.65;8.45;;;24.90;67.50;;;;;;5092368;28;20032;-77
2023/09/19 06:25:57;;;;;;;17.80;7.55;;;24.90;67.40;;;;;;5092486;28;20104;-78
2023/09/19 06:28:25;;;;;;;19.45;9.15;;;24.90;67.20;;;;;;5092544;28;20032;-76
2023/09/19 06:30:51;;;;;;;19.38;8.90;;;25.00;67.30;;;;;;5074349;28;20446;-76
2023/09/19 06:33:18;;;;;;;19.65;7.57;;;25.00;67.10;;;;;;5073977;28;20123;-76
2023/09/19 06:35:44;;;;;;;25.35;8.25;;;25.00;67.10;;;;;;5073940;28;20092;-76
2023/09/19 06:38:11;;;;;;;26.88;9.43;;;25.10;67.00;;;;;;5092662;28;20073;-78
2023/09/19 06:40:37;;;;;;;21.30;8.60;;;25.10;66.80;;;;;;5074158;28;20383;-76
2023/09/19 06:43:04;;;;;;;20.33;8.05;;;25.10;66.80;;;;;;5092127;28;20036;-76
2023/09/19 06:45:31;;;;;;;20.73;8.20;;;25.10;66.60;;;;;;5092450;28;20472;-76
2023/09/19 06:47:59;;;;;;;19.90;8.50;;;25.30;66.70;;;;;;5092101;28;20540;-77
2023/09/19 06:50:25;;;;;;;19.40;7.72;;;25.40;66.50;;;;;;5092497;28;20480;-78
2023/09/19 06:52:53;;;;;;;26.90;8.63;;;25.40;66.30;;;;;;5073979;28;20043;-78
2023/09/19 06:55:20;;;;;;;27.42;8.30;;;25.50;66.40;;;;;;5092289;28;20177;-77
2023/09/19 06:57:46;;;;;;;24.90;8.63;;;25.60;66.20;;;;;;5091788;28;20111;-78
2023/09/19 07:00:18;;;;;;;24.35;8.75;;;25.70;66.20;;;;;;5092288;28;20032;-75
2023/09/19 07:02:44;;;;;;;30.45;8.40;;;25.80;65.90;;;;;;5092489;28;20024;-77
2023/09/19 07:05:10;;;;;;;24.08;8.20;;;26.00;65.80;;;;;;5092343;28;20036;-76
2023/09/19 07:07:36;;;;;;;19.42;7.90;;;26.10;66.00;;;;;;5093355;28;20526;-78
2023/09/19 07:10:05;;;;;;;16.25;7.45;;;26.30;65.30;;;;;;5102673;28;20044;-76
2023/09/19 07:12:32;;;;;;;25.90;8.30;;;26.40;65.60;;;;;;5100732;28;20050;-78
2023/09/19 07:14:58;;;;;;;20.17;9.07;;;26.60;64.90;;;;;;5093247;28;20036;-77
2023/09/19 07:17:24;;;;;;;23.88;8.52;;;26.80;64.70;;;;;;5092335;28;20040;-78
2023/09/19 07:19:50;;;;;;;21.77;7.63;;;26.90;64.20;;;;;;5094573;28;20111;-78
2023/09/19 07:22:16;;;;;;;28.05;8.70;;;27.10;64.20;;;;;;5096471;28;20492;-76
2023/09/19 07:24:42;;;;;;;23.55;8.40;;;27.30;63.80;;;;;;5095907;28;20024;-79
2023/09/19 07:27:08;;;;;;;20.92;7.72;;;27.40;63.50;;;;;;5096246;28;20036;-79
2023/09/19 07:29:34;;;;;;;22.58;7.47;;;27.60;63.20;;;;;;5096333;28;20048;-78
2023/09/19 07:32:00;;;;;;;13.15;7.07;;;27.70;63.20;;;;;;5077473;28;20072;-78
2023/09/19 07:34:25;;;;;;;22.95;8.25;;;27.80;62.90;;;;;;5096477;28;20032;-78
2023/09/19 07:36:51;;;;;;;22.48;7.30;;;27.90;62.80;;;;;;5096258;28;20035;-78
2023/09/19 07:39:17;;;;;;;18.20;7.47;;;28.00;62.70;;;;;;5095919;28;20063;-76
2023/09/19 07:41:43;;;;;;;15.02;7.43;;;28.00;62.70;;;;;;5095962;28;20063;-78
2023/09/19 07:44:10;;;;;;;20.00;7.95;;;28.00;62.40;;;;;;5096323;28;20446;-77
2023/09/19 07:46:36;;;;;;;12.95;7.00;;;28.00;62.00;;;;;;5095967;28;20054;-77
2023/09/19 07:49:01;;;;;;;14.50;6.35;;;28.00;62.30;;;;;;5096148;28;20028;-80
2023/09/19 07:51:27;;;;;;;20.48;7.30;;;28.00;62.30;;;;;;5096245;28;20032;-78
2023/09/19 07:53:54;;;;;;;25.35;7.28;;;28.10;62.10;;;;;;5095545;28;20036;-78
2023/09/19 07:56:20;;;;;;;25.48;7.68;;;28.10;62.10;;;;;;5095747;28;20529;-78
2023/09/19 07:58:46;;;;;;;23.83;7.55;;;28.10;62.30;;;;;;5095661;28;20036;-78
2023/09/19 08:01:13;;;;;;;16.33;6.57;;;28.00;62.30;;;;;;5095711;28;20456;-76
2023/09/19 08:03:43;;;;;;;15.98;6.85;;;28.10;62.60;;;;;;5095780;28;20028;-78
2023/09/19 08:06:10;;;;;;;19.15;7.70;;;28.10;62.60;;;;;;5077870;28;20418;-79
2023/09/19 08:08:39;;;;;;;23.45;7.70;;;28.10;62.70;;;;;;5095555;28;20071;-77
2023/09/19 08:11:12;;;;;;;14.80;6.93;;;28.10;63.00;;;;;;5095982;28;20024;-77
2023/09/19 08:13:43;;;;;;;22.67;7.32;;;28.10;63.00;;;;;;5095742;28;20071;-79
2023/09/19 08:16:10;;;;;;;23.30;7.05;;;28.10;63.30;;;;;;5095919;28;20047;-79
2023/09/19 08:18:40;;;;;;;23.70;7.40;;;28.00;63.00;;;;;;5095529;28;20036;-77
2023/09/19 08:21:08;;;;;;;15.00;6.28;;;28.10;63.40;;;;;;5095210;28;20463;-78
2023/09/19 08:23:33;;;;;;;21.80;6.65;;;28.10;63.30;;;;;;5095097;28;20399;-79
2023/09/19 08:26:03;;;;;;;18.92;7.07;;;28.20;63.50;;;;;;5095129;28;20036;-77
2023/09/19 08:28:29;;;;;;;15.63;6.65;;;28.20;63.80;;;;;;5095107;28;20036;-77
2023/09/19 08:30:55;;;;;;;16.83;7.50;;;28.20;63.80;;;;;;5094866;28;20028;-78
2023/09/19 08:33:21;;;;;;;21.23;6.88;;;28.20;63.90;;;;;;5094786;28;20574;-77
2023/09/19 08:35:46;;;;;;;17.30;6.20;;;28.30;64.30;;;;;;5095203;28;20056;-78
2023/09/19 08:38:14;;;;;;;18.73;6.50;;;28.30;64.40;;;;;;5094825;28;20085;-77
2023/09/19 08:40:41;;;;;;;16.55;6.63;;;28.40;65.10;;;;;;5094535;28;20030;-77
2023/09/19 08:43:08;;;;;;;21.45;6.22;;;28.40;65.50;;;;;;5094505;28;20027;-78
2023/09/19 08:45:34;;;;;;;13.07;6.93;;;28.50;65.90;;;;;;5094722;28;20115;-77
2023/09/19 08:48:26;;;;;;;18.92;6.07;;;28.50;66.00;;;;;;5076298;28;20067;-78
2023/09/19 08:51:07;;;;;;;17.98;5.97;;;28.60;66.30;;;;;;5094875;28;20488;-79
2023/09/19 08:53:42;;;;;;;16.73;5.70;;;28.60;66.10;;;;;;5094413;28;20492;-76
2023/09/19 08:56:13;;;;;;;20.20;6.43;;;28.60;66.20;;;;;;5094260;28;20103;-77
2023/09/19 08:59:02;;;;;;;21.45;5.82;;;28.70;66.00;;;;;;5094444;28;20028;-78
2023/09/19 09:01:28;;;;;;;18.10;5.72;;;28.70;65.70;;;;;;5094530;28;20099;-78
2023/09/19 09:03:56;;;;;;;17.35;5.05;;;28.80;65.70;;;;;;5094368;28;20039;-76
2023/09/19 09:06:23;;;;;;;22.20;5.90;;;28.80;65.30;;;;;;5094041;28;20491;-78
2023/09/19 09:08:51;;;;;;;15.02;5.65;;;28.90;65.20;;;;;;5093958;28;20455;-77
2023/09/19 09:11:17;;;;;;;21.90;5.45;;;29.00;65.10;;;;;;5094203;28;20029;-77
2023/09/19 09:13:47;;;;;;;18.80;5.72;;;29.00;64.90;;;;;;5094083;28;20071;-78
2023/09/19 09:16:17;;;;;;;17.23;5.80;;;29.00;64.80;;;;;;5075628;28;20442;-77
2023/09/19 09:18:44;;;;;;;12.82;5.47;;;29.00;64.70;;;;;;5075997;28;20062;-78
2023/09/19 09:21:10;;;;;;;12.52;5.18;;;29.10;64.70;;;;;;5093970;28;20043;-77
2023/09/19 09:23:36;;;;;;;19.50;5.72;;;29.10;65.00;;;;;;5093564;28;20032;-77
2023/09/19 09:26:06;;;;;;;14.50;4.90;;;29.20;65.10;;;;;;5094047;28;20039;-77
2023/09/19 09:28:33;;;;;;;17.02;6.28;;;29.20;65.10;;;;;;5093631;28;20029;-79
2023/09/19 09:31:02;;;;;;;15.07;5.30;;;29.20;65.00;;;;;;5093771;28;20028;-79
2023/09/19 09:33:28;;;;;;;10.30;4.75;;;29.30;65.00;;;;;;5093686;28;20086;-78
2023/09/19 09:36:02;;;;;;;16.30;5.47;;;29.30;65.00;;;;;;5093850;28;20024;-78
2023/09/19 09:38:43;;;;;;;16.55;5.70;;;29.40;64.80;;;;;;5094041;28;20028;-79
2023/09/19 09:41:09;;;;;;;14.60;5.63;;;29.40;64.50;;;;;;5093300;28;20380;-78
2023/09/19 09:43:38;;;;;;;14.15;5.05;;;29.50;64.30;;;;;;5093157;28;20031;-78
2023/09/19 09:48:51;;;;;;;18.77;5.55;;;29.60;64.10;;;;;;5093665;28;20032;-77
2023/09/19 09:51:30;;;;;;;15.57;4.97;;;29.60;63.40;;;;;;5075410;28;20044;-77
2023/09/19 09:54:12;;;;;;;11.88;4.85;;;29.60;62.30;;;;;;5075245;28;20051;-78
2023/09/19 09:57:13;;;;;;;14.70;4.82;;;29.70;61.60;;;;;;5093212;28;20127;-77
2023/09/19 09:59:47;;;;;;;15.68;5.40;;;29.60;61.20;;;;;;5093143;28;20020;-79
2023/09/19 10:02:25;;;;;;;14.77;4.75;;;29.70;61.30;;;;;;5092882;28;20125;-77
2023/09/19 10:04:59;;;;;;;19.67;5.55;;;29.70;61.00;;;;;;5092973;28;20028;-78
2023/09/19 10:07:32;;;;;;;14.50;5.00;;;29.80;61.20;;;;;;5092863;28;20048;-79
2023/09/19 10:10:12;;;;;;;15.85;4.47;;;29.80;61.00;;;;;;5093234;28;20032;-78
2023/09/19 10:12:45;;;;;;;14.82;3.95;;;29.80;60.50;;;;;;5092888;28;20529;-79
2023/09/19 10:15:11;;;;;;;;;;;30.00;60.30;;;;;;5074962;28;20070;-76
2023/09/19 10:17:40;;;;;;;13.57;4.38;;;30.00;60.50;;;;;;5074269;28;19978;-77
2023/09/19 10:20:18;;;;;;;16.42;4.40;;;30.00;60.10;;;;;;5092857;28;20441;-77
2023/09/19 10:22:56;;;;;;;14.73;3.78;;;30.10;60.00;;;;;;5092928;28;20123;-79
2023/09/19 10:25:28;;;;;;;12.95;4.30;;;30.10;59.40;;;;;;5092785;28;20050;-78
2023/09/19 10:27:55;;;;;;;13.65;3.85;;;30.00;59.20;;;;;;5092819;28;20384;-76
2023/09/19 10:30:24;;;;;;;9.95;4.10;;;30.10;59.30;;;;;;5092527;28;20107;-77
2023/09/19 10:33:04;;;;;;;12.35;4.55;;;30.10;59.10;;;;;;5074291;28;20602;-78
2023/09/19 10:35:30;;;;;;;12.82;4.47;;;30.20;59.00;;;;;;5092506;28;20028;-77
2023/09/19 10:38:00;;;;;;;13.38;4.10;;;30.20;58.80;;;;;;5092536;28;20032;-79
2023/09/19 10:40:30;;;;;;;13.45;4.38;;;30.20;58.90;;;;;;5092143;28;20028;-76
2023/09/19 10:43:05;;;;;;;10.05;3.83;;;30.20;58.70;;;;;;5092519;28;20495;-78
2023/09/19 10:45:32;;;;;;;12.77;4.38;;;30.30;58.50;;;;;;5074513;28;20040;-78
2023/09/19 10:47:58;;;;;;;11.50;4.18;;;30.30;58.60;;;;;;5092720;28;20103;-78
2023/09/19 10:50:25;;;;;;;10.88;4.90;;;30.30;58.70;;;;;;5092463;28;20032;-78
2023/09/19 10:53:00;;;;;;;10.75;4.25;;;30.30;58.50;;;;;;5092214;28;20036;-78
2023/09/19 10:55:28;;;;;;;12.60;4.45;;;30.40;58.50;;;;;;5092592;28;20035;-78
2023/09/19 10:58:10;;;;;;;15.38;4.28;;;30.40;58.30;;;;;;5074310;28;20112;-77
2023/09/19 11:00:56;;;;;;;12.88;4.38;;;30.40;58.00;;;;;;5092269;28;20024;-78
2023/09/19 11:03:23;;;;;;;10.73;3.75;;;30.50;57.70;;;;;;5092729;28;20481;-78
2023/09/19 11:06:19;;;;;;;10.38;4.18;;;30.50;57.40;;;;;;5092207;28;20048;-78
2023/09/19 11:09:26;;;;;;;10.88;4.28;;;30.60;57.10;;;;;;5092370;28;20040;-78
2023/09/19 11:11:55;;;;;;;15.00;4.10;;;30.60;56.80;;;;;;5091730;28;20038;-79
2023/09/19 11:14:24;;;;;;;11.93;4.20;;;30.60;56.50;;;;;;5092202;28;20514;-77
2023/09/19 11:17:11;;;;;;;15.35;4.50;;;30.60;56.40;;;;;;5092275;28;20029;-78
2023/09/19 11:22:57;;;;;;;10.25;3.67;;;30.70;56.20;;;;;;5092407;28;20039;-78
2023/09/19 11:25:39;;;;;;;12.13;3.80;;;30.70;56.30;;;;;;5074147;28;20530;-78
2023/09/19 11:28:17;;;;;;;15.02;3.80;;;30.80;55.90;;;;;;5092568;28;20028;-76
2023/09/19 11:30:50;;;;;;;10.30;3.72;;;30.80;55.30;;;;;;5074173;28;20036;-78
2023/09/19 11:33:33;;;;;;;10.60;4.03;;;30.80;55.00;;;;;;5092027;28;20055;-78
2023/09/19 11:36:02;;;;;;;12.93;3.97;;;30.90;55.20;;;;;;5092546;28;20024;-78
2023/09/19 11:38:46;;;;;;;9.40;3.72;;;30.90;55.40;;;;;;5093001;28;20024;-76
2023/09/19 11:41:25;;;;;;;12.60;3.50;;;30.90;55.10;;;;;;5094440;28;20089;-79
2023/09/19 11:44:06;;;;;;;10.18;3.65;;;31.00;55.10;;;;;;5093095;28;20066;-77
2023/09/19 11:46:52;;;;;;;12.02;4.07;;;31.00;54.60;;;;;;5092058;28;20051;-77
2023/09/19 11:49:30;;;;;;;9.80;3.75;;;31.10;54.60;;;;;;5092139;28;20449;-78
2023/09/19 11:51:57;;;;;;;12.88;4.13;;;31.20;54.80;;;;;;5092309;28;20056;-79
2023/09/19 11:54:24;;;;;;;9.98;3.67;;;31.20;54.70;;;;;;5092068;28;20455;-77
2023/09/19 11:56:51;;;;;;;14.35;4.13;;;31.30;54.40;;;;;;5092149;28;20446;-77
2023/09/19 11:59:22;;;;;;;10.82;3.92;;;31.30;54.50;;;;;;5092244;28;20032;-77
2023/09/19 12:01:57;;;;;;;10.00;3.72;;;31.40;54.40;;;;;;5092067;28;20024;-76
2023/09/19 12:04:41;;;;;;;17.77;4.60;;;31.40;54.30;;;;;;5091918;28;20024;-77
2023/09/19 12:07:14;;;;;;;17.52;5.10;;;31.40;53.20;;;;;;5095899;28;20028;-78
2023/09/19 12:09:47;;;;;;;12.27;4.43;;;31.40;54.70;;;;;;5077278;28;20499;-76
2023/09/19 12:12:26;;;;;;;12.75;3.83;;;31.40;53.60;;;;;;5077020;28;20093;-78
2023/09/19 12:14:53;;;;;;;11.82;3.90;;;31.30;54.80;;;;;;5095505;28;20496;-77
2023/09/19 12:17:24;;;;;;;12.40;3.58;;;31.30;54.80;;;;;;5095345;28;20032;-78
2023/09/19 12:19:56;;;;;;;12.45;5.72;;;31.30;55.00;;;;;;5095052;28;20028;-77
2023/09/19 12:22:22;;;;;;;15.05;4.18;;;31.40;55.20;;;;;;5095624;28;20032;-77
2023/09/19 12:24:50;;;;;;;12.50;4.43;;;31.30;55.10;;;;;;5076707;28;20042;-76
2023/09/19 12:27:16;;;;;;;13.15;4.13;;;31.30;54.70;;;;;;5095428;28;20024;-78
2023/09/19 12:29:49;;;;;;;13.43;3.83;;;31.30;55.00;;;;;;5095226;28;20036;-76
2023/09/19 12:32:21;;;;;;;14.90;3.80;;;31.20;54.90;;;;;;5094937;28;20037;-78
2023/09/19 12:34:54;;;;;;;16.42;4.35;;;31.30;55.60;;;;;;5095229;28;20028;-77
2023/09/19 12:37:27;;;;;;;10.63;4.00;;;31.40;55.80;;;;;;5094922;28;20120;-78
2023/09/19 12:39:54;;;;;;;16.85;4.15;;;31.30;55.60;;;;;;5076910;28;20126;-78
2023/09/19 12:42:28;;;;;;;10.05;4.35;;;31.30;55.40;;;;;;5076766;28;20172;-78
2023/09/19 12:45:00;;;;;;;14.02;3.97;;;31.30;55.60;;;;;;5094832;28;20032;-73
2023/09/19 12:47:29;;;;;;;12.77;4.15;;;31.40;55.50;;;;;;5094826;28;20437;-78
2023/09/19 12:50:08;;;;;;;10.35;3.88;;;31.40;55.50;;;;;;5094611;28;20036;-80
2023/09/19 12:52:38;;;;;;;12.90;4.18;;;31.40;54.50;;;;;;5094676;28;20036;-77
2023/09/19 12:55:06;;;;;;;12.00;3.95;;;31.40;53.70;;;;;;5094749;28;20043;-78